Time;durP1;ratioP1;P1;durP2;ratioP2;P2;SDS_P1;SDS_P2;PMS_P1;PMS_P2;Temp;Humidity;BMP_temperature;BMP_pressure;BME280_temperature;BME280_humidity;BME280_pressure;Samples;Min_cycle;Max_cycle;Signal;HPM_P1;HPM_P2
2024/02/21 00:00:17;;;;;;;8.20;5.10;;;9.30;1.00;;;;;;5102695;28;20426;-45
2024/02/21 00:02:42;;;;;;;7.50;4.90;;;9.30;1.00;;;;;;5101864;28;20178;-41
2024/02/21 00:05:08;;;;;;;7.23;5.00;;;9.30;24.10;;;;;;5100678;28;20426;-41
2024/02/21 00:07:33;;;;;;;7.33;4.40;;;9.30;16.50;;;;;;5099635;28;20603;-44
2024/02/21 00:10:00;;;;;;;7.53;4.30;;;9.30;1.60;;;;;;5117444;28;20622;-42
2024/02/21 00:12:26;;;;;;;5.00;3.83;;;9.30;1.00;;;;;;5118180;28;20259;-42
2024/02/21 00:14:51;;;;;;;11.47;5.33;;;9.30;1.00;;;;;;5117105;28;20465;-45
2024/02/21 00:17:17;;;;;;;6.53;4.30;;;9.30;1.00;;;;;;5117958;28;20226;-43
2024/02/21 00:19:42;;;;;;;7.57;3.70;;;9.20;1.00;;;;;;5118046;28;20183;-44
2024/02/21 00:22:08;;;;;;;12.50;4.90;;;9.20;1.00;;;;;;5118792;28;20274;-43
2024/02/21 00:24:34;;;;;;;9.13;4.43;;;9.20;1.00;;;;;;5117877;28;20191;-42
2024/02/21 00:26:59;;;;;;;7.53;4.17;;;9.20;1.00;;;;;;5119432;28;20537;-41
2024/02/21 00:29:25;;;;;;;6.73;4.30;;;9.20;1.00;;;;;;5119680;28;20418;-42
2024/02/21 00:31:51;;;;;;;8.30;4.07;;;9.20;1.00;;;;;;5103084;28;20553;-41
2024/02/21 00:34:17;;;;;;;7.87;5.07;;;9.20;1.00;;;;;;5120020;28;20470;-41
2024/02/21 00:36:42;;;;;;;5.40;3.70;;;9.20;1.00;;;;;;5101271;28;20258;-41
2024/02/21 00:39:08;;;;;;;6.53;4.10;;;9.20;1.00;;;;;;5117397;28;20202;-42
2024/02/21 00:41:33;;;;;;;7.50;4.40;;;9.20;1.00;;;;;;5116220;28;20183;-43
2024/02/21 00:43:59;;;;;;;5.90;3.70;;;9.20;1.00;;;;;;5115066;28;20324;-46
2024/02/21 00:46:24;;;;;;;8.73;4.27;;;9.20;1.00;;;;;;5115352;28;20199;-42
2024/02/21 00:48:50;;;;;;;6.50;3.90;;;9.20;1.00;;;;;;5115219;28;20430;-42
2024/02/21 00:51:16;;;;;;;6.07;4.20;;;9.20;1.00;;;;;;5098087;28;20175;-41
2024/02/21 00:53:42;;;;;;;8.80;3.93;;;9.10;1.00;;;;;;5098065;28;20538;-43
2024/02/21 00:56:08;;;;;;;8.10;4.10;;;9.10;1.00;;;;;;5115265;28;20426;-41
2024/02/21 00:58:34;;;;;;;7.03;4.13;;;9.10;1.00;;;;;;5115077;28;20513;-44
2024/02/21 01:01:03;;;;;;;6.60;3.40;;;9.10;1.00;;;;;;5114648;28;20241;-43
2024/02/21 01:03:28;;;;;;;6.10;3.63;;;9.10;1.00;;;;;;5114266;28;20180;-42
2024/02/21 01:05:54;;;;;;;10.13;4.10;;;9.10;1.00;;;;;;5096909;28;20524;-41
2024/02/21 01:08:20;;;;;;;6.80;4.10;;;9.10;1.00;;;;;;5113875;28;20214;-43
2024/02/21 01:10:45;;;;;;;5.43;3.20;;;9.10;1.00;;;;;;5081449;28;20218;-41
2024/02/21 01:13:11;;;;;;;7.27;2.10;;;9.10;99.90;;;;;;5116626;28;20199;-43
2024/02/21 01:15:37;;;;;;;3.23;2.23;;;9.60;99.30;;;;;;5116264;28;20183;-43
2024/02/21 01:18:02;;;;;;;4.60;2.07;;;10.40;99.90;;;;;;5098713;28;20261;-42
2024/02/21 01:20:28;;;;;;;3.50;2.53;;;11.10;99.90;;;;;;5117478;28;20223;-45
2024/02/21 01:22:54;;;;;;;4.80;3.10;;;11.40;1.00;;;;;;5117497;28;20469;-42
2024/02/21 01:25:19;;;;;;;4.90;3.43;;;11.40;1.00;;;;;;5117859;28;20612;-42
2024/02/21 01:27:45;;;;;;;6.43;3.20;;;11.30;1.00;;;;;;5117671;28;20222;-47
2024/02/21 01:30:11;;;;;;;7.13;3.43;;;11.00;99.90;;;;;;5118219;28;20176;-42
2024/02/21 01:32:37;;;;;;;10.53;4.07;;;10.70;1.00;;;;;;5100990;28;20242;-42
2024/02/21 01:35:02;;;;;;;5.07;3.10;;;10.40;99.90;;;;;;5101431;28;20444;-42
2024/02/21 01:37:28;;;;;;;7.40;3.33;;;10.20;99.90;;;;;;5083563;28;20171;-41
2024/02/21 01:39:53;;;;;;;6.93;4.00;;;10.00;99.90;;;;;;5083731;28;20195;-42
2024/02/21 01:42:19;;;;;;;9.33;3.57;;;9.80;99.90;;;;;;5117783;28;20180;-40
2024/02/21 01:44:45;;;;;;;6.33;4.17;;;9.70;99.90;;;;;;5117463;28;20176;-41
2024/02/21 01:47:14;;;;;;;6.97;3.53;;;9.50;99.90;;;;;;5099636;28;20204;-42
2024/02/21 01:49:43;;;;;;;6.50;3.40;;;9.50;99.90;;;;;;5118334;28;20172;-40
2024/02/21 01:52:11;;;;;;;8.77;3.80;;;9.30;1.00;;;;;;5118113;28;20669;-43
2024/02/21 01:54:37;;;;;;;8.80;3.80;;;9.30;1.00;;;;;;5100398;28;20514;-43
2024/02/21 01:57:03;;;;;;;6.57;3.50;;;9.20;1.00;;;;;;5119166;28;20433;-41
2024/02/21 01:59:29;;;;;;;6.70;3.40;;;9.10;1.00;;;;;;5100890;28;20183;-41
2024/02/21 02:01:56;;;;;;;5.67;3.70;;;9.10;1.00;;;;;;5118663;28;20490;-41
2024/02/21 02:04:23;;;;;;;7.90;3.63;;;9.10;1.00;;;;;;5118577;28;20168;-41
2024/02/21 02:06:49;;;;;;;6.40;3.60;;;9.00;1.00;;;;;;5118408;28;20465;-41
2024/02/21 02:09:14;;;;;;;7.57;4.60;;;9.00;1.00;;;;;;5115847;28;20445;-42
2024/02/21 02:11:40;;;;;;;5.30;3.90;;;8.90;6.20;;;;;;5116281;28;20800;-43
2024/02/21 02:14:06;;;;;;;9.03;3.60;;;8.90;37.20;;;;;;5117195;28;20596;-41
2024/02/21 02:16:31;;;;;;;7.37;4.57;;;8.90;65.40;;;;;;5099676;28;20213;-40
2024/02/21 02:18:57;;;;;;;7.33;4.20;;;8.90;87.30;;;;;;5117865;28;20286;-41
2024/02/21 02:21:30;;;;;;;5.80;3.80;;;8.90;99.90;;;;;;5117462;28;20235;-41
2024/02/21 02:23:56;;;;;;;6.00;3.90;;;8.80;99.90;;;;;;5099628;28;20417;-41
2024/02/21 02:26:22;;;;;;;7.70;4.47;;;8.80;99.90;;;;;;5098775;28;20473;-41
2024/02/21 02:28:47;;;;;;;5.00;3.57;;;8.70;99.90;;;;;;5116714;28;20439;-41
2024/02/21 02:31:13;;;;;;;5.17;3.50;;;8.70;99.90;;;;;;5099351;28;20191;-42
2024/02/21 02:33:39;;;;;;;9.83;4.70;;;8.80;99.90;;;;;;5117990;28;20168;-44
2024/02/21 02:36:05;;;;;;;7.77;4.10;;;8.70;99.90;;;;;;5117492;28;20546;-45
2024/02/21 02:38:30;;;;;;;7.20;4.27;;;8.70;99.90;;;;;;5117384;28;20175;-42
2024/02/21 02:40:56;;;;;;;9.83;4.37;;;8.70;99.90;;;;;;5117013;28;20441;-43
2024/02/21 02:43:21;;;;;;;6.80;3.77;;;8.70;99.90;;;;;;5099433;28;20542;-41
2024/02/21 02:45:47;;;;;;;8.37;4.87;;;8.70;99.90;;;;;;5117099;28;20301;-41
2024/02/21 02:48:13;;;;;;;8.27;4.70;;;8.70;99.90;;;;;;5099493;28;20212;-42
2024/02/21 02:50:38;;;;;;;7.87;4.40;;;8.70;99.90;;;;;;5117618;28;20182;-40
2024/02/21 02:53:04;;;;;;;4.97;3.70;;;8.70;99.90;;;;;;5117459;28;20270;-47
2024/02/21 02:55:30;;;;;;;4.30;3.70;;;8.70;99.90;;;;;;5117188;28;20164;-43
2024/02/21 02:57:55;;;;;;;9.27;4.37;;;8.70;99.90;;;;;;5116743;28;20184;-40
2024/02/21 03:00:21;;;;;;;10.87;4.63;;;8.70;99.90;;;;;;5117197;28;20194;-42
2024/02/21 03:02:49;;;;;;;8.17;3.87;;;8.70;99.90;;;;;;5117025;28;20421;-41
2024/02/21 03:05:19;;;;;;;7.03;4.30;;;8.80;99.90;;;;;;5116891;28;20686;-43
2024/02/21 03:07:45;;;;;;;5.60;3.67;;;8.80;99.90;;;;;;5098971;28;20464;-42
2024/02/21 03:10:11;;;;;;;7.23;4.20;;;8.80;99.90;;;;;;5117377;28;20451;-46
2024/02/21 03:12:37;;;;;;;8.33;3.90;;;8.80;99.90;;;;;;5116849;28;20418;-43
2024/02/21 03:15:04;;;;;;;5.60;3.60;;;8.80;99.90;;;;;;5115878;28;20574;-42
2024/02/21 03:17:31;;;;;;;5.70;3.60;;;8.80;99.90;;;;;;5120126;28;20239;-40
2024/02/21 03:19:57;;;;;;;6.67;3.83;;;8.80;99.90;;;;;;5120681;28;20449;-40
2024/02/21 03:22:22;;;;;;;5.50;3.90;;;8.80;99.90;;;;;;5120740;28;20425;-42
2024/02/21 03:24:49;;;;;;;7.97;3.90;;;8.80;99.90;;;;;;5120718;28;20570;-43
2024/02/21 03:27:14;;;;;;;7.93;4.53;;;8.70;99.90;;;;;;5120459;28;20223;-42
2024/02/21 03:29:40;;;;;;;8.60;4.53;;;8.70;99.90;;;;;;5120217;28;20421;-44
2024/02/21 03:32:06;;;;;;;7.40;3.97;;;8.70;99.90;;;;;;5121190;28;20179;-43
2024/02/21 03:34:31;;;;;;;6.63;3.50;;;8.70;99.90;;;;;;5101670;28;20470;-41
2024/02/21 03:36:57;;;;;;;8.50;4.40;;;8.70;99.90;;;;;;5118137;28;20564;-42
2024/02/21 03:39:23;;;;;;;5.63;3.53;;;8.70;99.90;;;;;;5119408;28;20206;-42
2024/02/21 03:41:48;;;;;;;7.23;4.00;;;8.70;99.90;;;;;;5120524;28;20172;-41
2024/02/21 03:44:14;;;;;;;9.67;4.00;;;8.70;99.90;;;;;;5120256;28;20538;-41
2024/02/21 03:46:39;;;;;;;7.43;4.27;;;8.70;99.90;;;;;;5119926;28;20187;-44
2024/02/21 03:49:05;;;;;;;6.97;3.60;;;8.70;99.90;;;;;;5120028;28;20243;-43
2024/02/21 03:51:31;;;;;;;6.03;3.87;;;8.70;99.90;;;;;;5120736;28;20176;-42
2024/02/21 03:53:56;;;;;;;5.53;3.10;;;8.70;99.90;;;;;;5120610;28;20172;-42
2024/02/21 03:56:22;;;;;;;7.80;3.80;;;8.70;99.90;;;;;;5120426;28;20172;-42
2024/02/21 03:58:47;;;;;;;6.03;3.60;;;8.70;87.10;;;;;;5102262;28;20181;-42
2024/02/21 04:01:15;;;;;;;3.57;2.97;;;8.60;51.30;;;;;;5119973;28;20571;-42
2024/02/21 04:03:41;;;;;;;10.83;4.20;;;8.60;25.20;;;;;;5119966;28;20198;-42
2024/02/21 04:06:07;;;;;;;7.70;3.97;;;8.60;16.40;;;;;;5119195;28;20773;-42
2024/02/21 04:08:33;;;;;;;5.50;3.30;;;8.50;32.00;;;;;;5118791;28;20406;-42
2024/02/21 04:10:59;;;;;;;7.47;3.63;;;8.60;92.40;;;;;;5119075;28;20402;-41
2024/02/21 04:13:25;;;;;;;11.27;3.40;;;8.60;26.30;;;;;;5118847;28;20504;-43
2024/02/21 04:15:51;;;;;;;5.70;3.33;;;8.60;7.20;;;;;;5119308;28;20168;-41
2024/02/21 04:18:16;;;;;;;7.20;4.10;;;8.60;1.00;;;;;;5101168;28;20444;-41
2024/02/21 04:20:42;;;;;;;5.60;3.27;;;8.50;1.00;;;;;;5118687;28;20277;-41
2024/02/21 04:23:07;;;;;;;5.80;3.63;;;8.50;1.00;;;;;;5119918;28;20214;-41
2024/02/21 04:25:33;;;;;;;4.43;3.40;;;8.50;1.00;;;;;;5101191;28;20176;-42
2024/02/21 04:27:59;;;;;;;5.33;3.23;;;8.50;1.00;;;;;;5119449;28;20216;-41
2024/02/21 04:30:25;;;;;;;6.93;4.10;;;8.50;1.00;;;;;;5100478;28;20435;-41
2024/02/21 04:32:50;;;;;;;5.20;3.47;;;8.50;1.00;;;;;;5118809;28;20414;-41
2024/02/21 04:35:16;;;;;;;6.87;3.73;;;8.40;1.00;;;;;;5118646;28;20179;-40
2024/02/21 04:37:42;;;;;;;6.47;3.70;;;8.40;1.00;;;;;;5100241;28;20171;-41
2024/02/21 04:40:09;;;;;;;9.00;4.13;;;8.40;1.00;;;;;;5100731;28;20482;-44
2024/02/21 04:42:34;;;;;;;6.43;3.33;;;8.40;1.00;;;;;;5117172;28;20175;-41
2024/02/21 04:45:00;;;;;;;6.50;4.00;;;8.40;1.00;;;;;;5116807;28;20790;-42
2024/02/21 04:47:26;;;;;;;5.63;3.60;;;8.40;1.00;;;;;;5118188;28;20210;-41
2024/02/21 04:49:52;;;;;;;6.00;3.53;;;8.30;1.00;;;;;;5117638;28;20236;-41
2024/02/21 04:52:18;;;;;;;4.80;3.30;;;8.30;1.00;;;;;;5118853;28;20429;-41
2024/02/21 04:54:44;;;;;;;5.23;3.57;;;8.30;1.00;;;;;;5118340;28;20271;-43
2024/02/21 04:57:10;;;;;;;6.57;4.00;;;8.30;1.00;;;;;;5117543;28;20814;-43
2024/02/21 04:59:36;;;;;;;6.37;3.60;;;8.30;1.00;;;;;;5118760;28;20183;-42
2024/02/21 05:02:02;;;;;;;5.70;3.50;;;8.30;1.00;;;;;;5118741;28;20819;-41
2024/02/21 05:04:27;;;;;;;6.07;3.87;;;8.20;1.00;;;;;;5117097;28;20418;-41
2024/02/21 05:06:53;;;;;;;5.73;3.20;;;8.20;1.00;;;;;;5116607;28;20473;-41
2024/02/21 05:09:19;;;;;;;7.73;3.57;;;8.20;1.00;;;;;;5115078;28;20237;-43
2024/02/21 05:11:45;;;;;;;7.30;3.87;;;8.10;1.00;;;;;;5114122;28;20435;-43
2024/02/21 05:14:10;;;;;;;5.80;4.37;;;8.10;1.00;;;;;;5114070;28;20288;-42
2024/02/21 05:16:36;;;;;;;5.53;4.17;;;8.10;1.00;;;;;;5095626;28;20275;-42
2024/02/21 05:19:02;;;;;;;7.27;4.17;;;8.10;1.00;;;;;;5114746;28;20191;-43
2024/02/21 05:21:28;;;;;;;6.27;4.50;;;8.10;1.00;;;;;;5115271;28;20222;-43
2024/02/21 05:23:54;;;;;;;8.27;5.10;;;8.00;1.00;;;;;;5117313;28;20937;-42
2024/02/21 05:26:24;;;;;;;6.03;3.90;;;8.00;1.00;;;;;;5116551;28;20194;-43
2024/02/21 05:28:50;;;;;;;6.13;3.83;;;8.00;1.00;;;;;;5116541;28;20176;-41
2024/02/21 05:31:16;;;;;;;7.17;3.80;;;8.00;1.00;;;;;;5116081;28;20422;-43
2024/02/21 05:33:43;;;;;;;4.70;3.47;;;7.90;1.00;;;;;;5116565;28;20513;-42
2024/02/21 05:36:08;;;;;;;5.93;3.70;;;7.90;1.00;;;;;;5115608;28;20494;-41
2024/02/21 05:38:35;;;;;;;6.63;4.30;;;7.90;1.00;;;;;;5115327;28;20902;-43
2024/02/21 05:41:01;;;;;;;6.47;3.73;;;7.80;1.00;;;;;;5115709;28;20572;-41
2024/02/21 05:43:26;;;;;;;6.23;3.87;;;7.80;3.90;;;;;;5116482;28;20426;-43
2024/02/21 05:45:52;;;;;;;9.63;3.97;;;7.80;22.90;;;;;;5116721;28;20183;-42
2024/02/21 05:48:17;;;;;;;5.53;3.57;;;7.70;70.30;;;;;;5117092;28;20227;-41
2024/02/21 05:50:43;;;;;;;5.93;3.43;;;7.70;99.90;;;;;;5116459;28;20600;-43
2024/02/21 05:53:10;;;;;;;6.27;3.50;;;7.70;99.90;;;;;;5097279;28;20183;-42
2024/02/21 05:55:35;;;;;;;6.00;3.20;;;7.70;99.90;;;;;;5096431;28;20186;-41
2024/02/21 05:58:02;;;;;;;4.17;3.17;;;7.70;99.90;;;;;;5113316;28;20434;-41
2024/02/21 06:00:28;;;;;;;5.30;3.07;;;7.70;99.90;;;;;;5114287;28;20446;-41
2024/02/21 06:02:53;;;;;;;4.03;3.30;;;7.70;99.90;;;;;;5115148;28;20497;-41
2024/02/21 06:05:19;;;;;;;4.87;3.23;;;7.60;99.90;;;;;;5096456;28;20437;-43
2024/02/21 06:07:45;;;;;;;5.70;3.27;;;7.60;99.90;;;;;;5113960;28;20488;-41
2024/02/21 06:10:10;;;;;;;4.00;2.87;;;7.60;99.90;;;;;;5113902;28;20200;-40
2024/02/21 06:12:36;;;;;;;5.37;3.57;;;7.60;99.90;;;;;;5113637;28;20410;-45
2024/02/21 06:15:02;;;;;;;6.70;3.97;;;7.60;99.90;;;;;;5096141;28;20483;-42
2024/02/21 06:17:28;;;;;;;7.47;4.70;;;7.60;99.90;;;;;;5115572;28;20442;-44
2024/02/21 06:19:53;;;;;;;9.30;6.00;;;7.60;99.90;;;;;;5113796;28;20433;-45
2024/02/21 06:22:19;;;;;;;14.27;7.70;;;7.60;99.90;;;;;;5112194;28;20194;-43
2024/02/21 06:24:45;;;;;;;10.50;6.70;;;7.60;99.90;;;;;;5099552;28;20195;-42
2024/02/21 06:27:11;;;;;;;11.40;7.30;;;7.60;99.90;;;;;;5089763;28;20494;-42
2024/02/21 06:29:37;;;;;;;7.77;5.37;;;7.60;99.90;;;;;;5090135;28;20443;-41
2024/02/21 06:32:02;;;;;;;6.33;4.80;;;7.60;99.90;;;;;;5088982;28;20517;-41
2024/02/21 06:34:28;;;;;;;7.20;4.83;;;7.60;99.90;;;;;;5074176;28;20173;-43
2024/02/21 06:36:54;;;;;;;9.03;5.40;;;7.60;99.90;;;;;;5092482;28;20180;-43
2024/02/21 06:39:23;;;;;;;5.40;3.87;;;7.70;65.70;;;;;;5074417;28;20486;-42
2024/02/21 06:41:50;;;;;;;7.30;3.80;;;7.70;37.20;;;;;;5056744;28;20511;-41
2024/02/21 06:44:16;;;;;;;8.47;3.43;;;7.70;30.50;;;;;;5091815;28;20426;-41
2024/02/21 06:46:42;;;;;;;5.53;3.90;;;7.80;99.90;;;;;;5074191;28;20744;-41
2024/02/21 06:49:07;;;;;;;5.43;3.40;;;8.00;23.50;;;;;;5073224;28;20509;-46
2024/02/21 06:51:34;;;;;;;4.70;3.20;;;8.10;1.00;;;;;;5091954;28;20169;-43
2024/02/21 06:54:00;;;;;;;4.00;3.20;;;8.30;1.00;;;;;;5096611;28;20534;-41
2024/02/21 06:56:29;;;;;;;7.07;3.93;;;8.50;1.00;;;;;;5095360;28;20456;-41
2024/02/21 06:58:58;;;;;;;10.03;3.73;;;8.60;99.90;;;;;;5097789;28;20181;-42
2024/02/21 07:01:24;;;;;;;7.17;4.33;;;8.80;99.90;;;;;;5098181;28;20422;-42
2024/02/21 07:03:50;;;;;;;7.40;5.30;;;8.90;99.90;;;;;;5096976;28;20820;-43
2024/02/21 07:06:15;;;;;;;11.73;7.80;;;9.00;74.30;;;;;;5099059;28;20418;-43
2024/02/21 07:08:41;;;;;;;10.77;8.20;;;9.10;36.80;;;;;;5097936;28;20512;-42
2024/02/21 07:11:07;;;;;;;13.17;7.80;;;9.10;1.00;;;;;;5079864;28;20400;-44
2024/02/21 07:13:33;;;;;;;11.80;6.77;;;9.20;1.00;;;;;;5099449;28;20542;-43
2024/02/21 07:15:58;;;;;;;11.67;6.37;;;9.30;1.00;;;;;;5081201;28;20185;-43
2024/02/21 07:18:25;;;;;;;6.93;4.10;;;9.40;1.00;;;;;;5081404;28;20429;-42
2024/02/21 07:20:51;;;;;;;4.80;3.57;;;9.50;1.00;;;;;;5098917;28;20485;-41
2024/02/21 07:23:18;;;;;;;6.37;3.30;;;9.60;1.00;;;;;;5097823;28;20462;-41
2024/02/21 07:25:43;;;;;;;4.80;3.70;;;9.70;1.00;;;;;;5098990;28;20426;-43
2024/02/21 07:28:09;;;;;;;5.80;3.13;;;9.90;1.00;;;;;;5097248;28;20515;-41
2024/02/21 07:30:35;;;;;;;7.57;3.67;;;10.10;1.00;;;;;;5097732;28;20466;-41
2024/02/21 07:33:00;;;;;;;6.77;2.77;;;10.30;99.90;;;;;;5099168;28;20226;-44
2024/02/21 07:35:26;;;;;;;8.77;3.30;;;10.40;99.90;;;;;;5097005;28;20529;-42
2024/02/21 07:37:51;;;;;;;8.00;3.20;;;10.70;99.90;;;;;;5079534;28;20199;-42
2024/02/21 07:40:17;;;;;;;6.80;3.40;;;10.90;99.90;;;;;;5078555;28;20222;-42
2024/02/21 07:42:44;;;;;;;5.80;3.20;;;11.10;99.90;;;;;;5097736;28;20180;-46
2024/02/21 07:45:10;;;;;;;8.17;3.53;;;11.30;99.90;;;;;;5079093;28;20184;-41
2024/02/21 07:47:36;;;;;;;6.03;2.93;;;11.40;99.90;;;;;;5096400;28;20470;-43
2024/02/21 07:50:06;;;;;;;4.50;3.40;;;11.50;95.00;;;;;;5079566;28;20426;-42
2024/02/21 07:52:31;;;;;;;3.53;2.87;;;11.50;63.20;;;;;;5097702;28;20862;-42
2024/02/21 07:54:57;;;;;;;3.80;2.87;;;11.60;45.40;;;;;;5077390;28;20435;-43
2024/02/21 07:57:23;;;;;;;6.43;3.93;;;11.60;31.90;;;;;;5095282;28;20172;-42
2024/02/21 07:59:49;;;;;;;7.20;3.40;;;11.70;16.30;;;;;;5097665;28;20497;-41
2024/02/21 08:02:15;;;;;;;6.90;3.40;;;11.70;8.70;;;;;;5096633;28;20426;-41
2024/02/21 08:04:41;;;;;;;7.13;3.43;;;11.80;1.00;;;;;;5097874;28;20261;-42
2024/02/21 08:07:06;;;;;;;4.03;2.87;;;11.90;1.00;;;;;;5097622;28;20470;-41
2024/02/21 08:09:32;;;;;;;5.40;3.40;;;12.00;1.00;;;;;;5097930;28;20176;-41
2024/02/21 08:11:57;;;;;;;5.80;3.13;;;12.10;1.00;;;;;;5098723;28;20246;-43
2024/02/21 08:14:24;;;;;;;5.63;2.80;;;12.20;1.00;;;;;;5098259;28;20209;-44
2024/02/21 08:16:51;;;;;;;5.20;2.90;;;12.30;1.00;;;;;;5098507;28;20184;-42
2024/02/21 08:19:16;;;;;;;3.63;2.60;;;12.50;1.00;;;;;;5097740;28;20435;-43
2024/02/21 08:21:42;;;;;;;11.80;4.20;;;12.60;1.00;;;;;;5078214;28;20466;-40
2024/02/21 08:24:08;;;;;;;6.73;3.20;;;12.80;1.00;;;;;;5097824;28;20199;-43
2024/02/21 08:26:35;;;;;;;4.27;2.63;;;12.90;1.00;;;;;;5077593;28;20535;-42
2024/02/21 08:29:01;;;;;;;3.90;3.27;;;12.90;1.00;;;;;;5096424;28;20272;-42
2024/02/21 08:31:34;;;;;;;5.37;2.97;;;13.00;1.00;;;;;;5095243;28;20580;-41
2024/02/21 08:34:03;;;;;;;5.40;2.60;;;13.20;1.00;;;;;;5079707;28;20275;-45
2024/02/21 08:36:30;;;;;;;6.60;3.30;;;13.40;1.00;;;;;;5096440;28;20414;-42
2024/02/21 08:38:56;;;;;;;4.57;3.20;;;13.60;1.00;;;;;;5106758;28;20934;-43
2024/02/21 08:41:23;;;;;;;6.23;3.03;;;13.80;1.00;;;;;;5118273;28;20570;-42
2024/02/21 08:43:50;;;;;;;6.00;3.43;;;13.90;1.00;;;;;;5118082;28;20417;-41
2024/02/21 08:46:16;;;;;;;7.40;3.00;;;14.00;1.00;;;;;;5099463;28;20723;-45
2024/02/21 08:48:43;;;;;;;5.07;3.00;;;14.00;1.00;;;;;;5118687;28;20409;-44
2024/02/21 08:51:08;;;;;;;4.60;2.70;;;14.10;1.00;;;;;;5099754;28;20581;-43
2024/02/21 08:53:34;;;;;;;5.70;2.80;;;14.10;1.00;;;;;;5118654;28;20457;-42
2024/02/21 08:55:59;;;;;;;4.40;3.70;;;14.10;1.00;;;;;;5115609;28;20176;-42
2024/02/21 08:58:26;;;;;;;6.63;3.00;;;14.00;1.00;;;;;;5114604;28;20565;-44
2024/02/21 09:00:52;;;;;;;5.87;3.20;;;14.10;1.00;;;;;;5099449;28;20183;-46
2024/02/21 09:03:19;;;;;;;3.67;1.80;;;14.10;1.00;;;;;;5116555;28;20421;-43
2024/02/21 09:05:46;;;;;;;2.50;0.70;;;14.30;1.00;;;;;;5113672;28;20174;-46
2024/02/21 09:08:12;;;;;;;9.70;2.00;;;15.40;1.00;;;;;;5113226;28;20555;-44
2024/02/21 09:10:40;;;;;;;6.87;1.73;;;16.20;1.00;;;;;;5096207;28;20893;-48
2024/02/21 09:13:07;;;;;;;3.63;1.40;;;17.20;1.00;;;;;;5113958;28;20751;-44
2024/02/21 09:15:33;;;;;;;5.23;1.33;;;18.00;95.10;;;;;;5112263;28;20687;-47
2024/02/21 09:17:58;;;;;;;1.90;1.10;;;18.70;99.90;;;;;;5094453;28;20418;-44
2024/02/21 09:20:24;;;;;;;8.10;1.80;;;19.10;99.90;;;;;;5113661;28;20231;-45
2024/02/21 09:22:49;;;;;;;2.63;1.67;;;19.50;1.00;;;;;;5116321;28;20179;-45
2024/02/21 09:25:15;;;;;;;4.93;1.83;;;19.90;1.00;;;;;;5115566;28;20248;-46
2024/02/21 09:27:41;;;;;;;3.37;1.97;;;20.00;1.00;;;;;;5115223;28;20356;-45
2024/02/21 09:30:07;;;;;;;6.10;2.10;;;20.20;1.00;;;;;;5079843;28;20523;-42
2024/02/21 09:32:32;;;;;;;2.90;1.73;;;20.50;1.00;;;;;;5116513;28;20263;-48
2024/02/21 09:34:58;;;;;;;4.30;2.07;;;20.70;1.00;;;;;;5116197;28;20429;-49
2024/02/21 09:37:24;;;;;;;6.80;1.53;;;20.90;1.00;;;;;;5116441;28;20538;-44
2024/02/21 09:39:52;;;;;;;4.23;2.13;;;21.10;1.00;;;;;;5116913;28;20550;-47
2024/02/21 09:42:21;;;;;;;3.97;1.57;;;21.20;1.00;;;;;;5098795;28;20437;-47
2024/02/21 09:44:48;;;;;;;5.33;1.50;;;21.50;1.00;;;;;;5117286;28;20734;-44
2024/02/21 09:47:22;;;;;;;3.57;1.70;;;21.60;1.00;;;;;;5097879;28;20496;-43
2024/02/21 09:49:48;;;;;;;2.47;1.80;;;21.60;1.00;;;;;;5115810;28;20425;-43
2024/02/21 09:52:15;;;;;;;3.73;1.90;;;21.60;1.00;;;;;;5117160;28;20494;-46
2024/02/21 09:54:44;;;;;;;3.33;2.07;;;21.70;1.00;;;;;;5098438;28;20496;-43
2024/02/21 09:57:10;;;;;;;3.03;1.60;;;21.90;1.00;;;;;;5113608;28;20405;-42
2024/02/21 09:59:37;;;;;;;3.10;1.90;;;22.10;1.00;;;;;;5114588;28;20527;-42
2024/02/21 10:02:02;;;;;;;3.47;1.60;;;22.40;1.00;;;;;;5114738;28;20425;-43
2024/02/21 10:04:29;;;;;;;3.83;2.10;;;22.60;1.00;;;;;;5079321;28;20437;-43
2024/02/21 10:06:54;;;;;;;4.50;1.93;;;22.90;1.00;;;;;;5114243;28;20227;-44
2024/02/21 10:09:27;;;;;;;3.40;1.90;;;23.10;1.00;;;;;;5115554;28;20823;-43
2024/02/21 10:11:54;;;;;;;3.43;2.07;;;23.30;1.00;;;;;;5115237;28;20524;-45
2024/02/21 10:14:20;;;;;;;3.10;1.70;;;23.50;1.00;;;;;;5116745;28;20449;-44
2024/02/21 10:16:48;;;;;;;3.00;1.67;;;23.60;1.00;;;;;;5115746;28;20796;-45
2024/02/21 10:19:18;;;;;;;3.90;2.07;;;23.70;1.00;;;;;;5096201;28;20210;-46
2024/02/21 10:21:44;;;;;;;3.57;2.40;;;23.70;1.00;;;;;;5115058;28;20757;-46
2024/02/21 10:24:12;;;;;;;4.40;2.63;;;23.50;1.00;;;;;;5095554;28;20432;-43
2024/02/21 10:26:38;;;;;;;3.87;2.10;;;23.50;1.00;;;;;;5115887;28;20429;-42
2024/02/21 10:29:04;;;;;;;4.50;2.77;;;23.40;1.00;;;;;;5097858;28;20540;-46
2024/02/21 10:31:30;;;;;;;6.53;2.37;;;23.50;1.00;;;;;;5118545;28;20171;-49
2024/02/21 10:34:05;;;;;;;4.50;2.33;;;23.50;1.00;;;;;;5116738;28;20457;-44
2024/02/21 10:36:31;;;;;;;3.87;1.80;;;23.60;1.00;;;;;;5117192;28;20171;-47
2024/02/21 10:38:56;;;;;;;5.60;2.00;;;23.60;1.00;;;;;;5116618;28;20436;-43
2024/02/21 10:41:23;;;;;;;5.47;1.83;;;23.60;1.00;;;;;;5118244;28;20171;-47
2024/02/21 10:43:53;;;;;;;4.20;1.90;;;23.50;1.00;;;;;;5118969;28;20476;-45
2024/02/21 10:46:21;;;;;;;2.40;1.53;;;23.40;1.00;;;;;;5118010;28;20474;-47
2024/02/21 10:48:47;;;;;;;3.50;2.17;;;23.30;1.00;;;;;;5116773;28;20409;-46
2024/02/21 10:51:19;;;;;;;2.70;1.97;;;23.40;1.00;;;;;;5119254;28;20416;-42
2024/02/21 10:54:19;;;;;;;5.30;2.07;;;23.50;1.00;;;;;;5099876;28;20727;-43
2024/02/21 10:56:45;;;;;;;5.00;2.20;;;23.60;1.00;;;;;;5119339;28;20421;-44
2024/02/21 10:59:11;;;;;;;7.47;1.83;;;23.80;1.00;;;;;;5099485;28;20490;-43
2024/02/21 11:01:36;;;;;;;3.67;1.70;;;23.90;1.00;;;;;;5098962;28;20243;-44
2024/02/21 11:04:05;;;;;;;4.17;1.87;;;24.10;1.00;;;;;;5118416;28;20429;-45
2024/02/21 11:06:31;;;;;;;4.13;1.87;;;24.20;1.00;;;;;;5117726;28;20179;-44
2024/02/21 11:09:07;;;;;;;3.97;1.70;;;24.30;1.00;;;;;;5099061;28;20417;-44
2024/02/21 11:11:38;;;;;;;4.80;2.17;;;24.30;1.00;;;;;;5116773;28;20513;-41
2024/02/21 11:14:25;;;;;;;5.33;1.90;;;24.30;99.90;;;;;;5117322;28;20821;-43
2024/02/21 11:16:51;;;;;;;2.50;1.63;;;24.40;99.90;;;;;;5119450;28;20426;-43
2024/02/21 11:19:22;;;;;;;4.00;1.60;;;24.40;99.90;;;;;;5100779;28;20440;-43
2024/02/21 11:21:48;;;;;;;2.40;1.20;;;24.40;1.00;;;;;;5117847;28;20224;-43
2024/02/21 11:24:14;;;;;;;4.73;1.53;;;24.40;99.90;;;;;;5119240;28;20429;-45
2024/02/21 11:26:43;;;;;;;3.30;2.23;;;24.40;99.90;;;;;;5089563;28;20255;-42
2024/02/21 11:29:10;;;;;;;2.40;1.40;;;24.30;99.90;;;;;;5081520;28;20422;-41
2024/02/21 11:31:45;;;;;;;3.07;1.60;;;24.30;99.90;;;;;;5099800;28;20418;-45
2024/02/21 11:34:11;;;;;;;3.77;1.57;;;24.30;99.90;;;;;;5081211;28;20453;-45
2024/02/21 11:36:50;;;;;;;2.07;1.47;;;24.30;99.90;;;;;;5079269;28;20417;-42
2024/02/21 11:39:24;;;;;;;4.53;2.17;;;24.10;99.90;;;;;;5098138;28;20517;-42
2024/02/21 11:42:02;;;;;;;2.30;1.50;;;24.00;99.90;;;;;;5079148;28;20414;-44
2024/02/21 11:44:28;;;;;;;3.83;2.00;;;23.80;99.90;;;;;;5097181;28;20444;-43
2024/02/21 11:46:53;;;;;;;3.67;1.60;;;23.60;99.90;;;;;;5094648;28;20466;-43
2024/02/21 11:49:19;;;;;;;2.43;1.60;;;23.40;99.90;;;;;;5093499;28;20188;-44
2024/02/21 11:51:45;;;;;;;5.50;2.27;;;23.40;99.90;;;;;;5095618;28;20234;-43
2024/02/21 11:54:13;;;;;;;2.80;1.70;;;23.30;99.90;;;;;;5097086;28;20176;-41
2024/02/21 11:56:38;;;;;;;4.93;1.83;;;23.30;99.90;;;;;;5096508;28;20192;-43
2024/02/21 11:59:06;;;;;;;2.77;1.50;;;23.40;99.90;;;;;;5093886;28;20477;-42
2024/02/21 12:01:32;;;;;;;3.23;1.97;;;23.40;99.90;;;;;;5096981;28;20245;-41
2024/02/21 12:03:57;;;;;;;2.27;1.60;;;23.50;99.90;;;;;;5097331;28;20422;-42
2024/02/21 12:06:23;;;;;;;2.50;1.73;;;23.60;99.90;;;;;;5062549;28;20244;-43
2024/02/21 12:08:49;;;;;;;2.30;1.60;;;23.70;99.90;;;;;;5096934;28;20448;-42
2024/02/21 12:11:22;;;;;;;3.20;2.00;;;23.80;99.90;;;;;;5093990;28;20469;-42
2024/02/21 12:14:00;;;;;;;5.33;1.90;;;23.90;99.90;;;;;;5097402;28;20180;-42
2024/02/21 12:16:27;;;;;;;2.53;2.00;;;24.10;99.90;;;;;;5097143;28;20483;-43
2024/02/21 12:18:53;;;;;;;3.50;1.70;;;24.30;99.90;;;;;;5095991;28;20438;-42
2024/02/21 12:21:19;;;;;;;5.30;2.10;;;24.40;99.90;;;;;;5093720;28;20511;-45
2024/02/21 12:23:46;;;;;;;2.37;1.53;;;24.60;99.90;;;;;;5075052;28;20422;-43
2024/02/21 12:26:12;;;;;;;3.50;1.97;;;24.70;99.90;;;;;;5093153;28;20259;-43
2024/02/21 12:28:38;;;;;;;4.23;1.97;;;24.80;99.90;;;;;;5089991;28;20725;-43
2024/02/21 12:31:03;;;;;;;3.30;1.40;;;24.90;99.90;;;;;;5091870;28;20214;-45
2024/02/21 12:33:30;;;;;;;4.60;1.50;;;24.80;99.90;;;;;;5073288;28;20195;-44
2024/02/21 12:35:56;;;;;;;4.13;1.57;;;24.70;99.90;;;;;;5089875;28;20711;-43
2024/02/21 12:38:21;;;;;;;7.60;1.60;;;24.50;99.90;;;;;;5090597;28;20464;-42
2024/02/21 12:40:47;;;;;;;2.63;1.60;;;24.40;99.90;;;;;;5074471;28;20173;-42
2024/02/21 12:43:13;;;;;;;3.77;1.90;;;24.30;99.90;;;;;;5091916;28;20212;-42
2024/02/21 12:45:38;;;;;;;3.67;1.37;;;24.20;99.90;;;;;;5094794;28;20497;-43
2024/02/21 12:48:05;;;;;;;6.23;2.03;;;24.10;99.90;;;;;;5094798;28;20200;-44
2024/02/21 12:50:31;;;;;;;1.80;1.17;;;24.10;99.90;;;;;;5095350;28;20240;-43
2024/02/21 12:52:58;;;;;;;2.20;1.20;;;24.10;99.90;;;;;;5096756;28;20453;-45